Time;durP1;ratioP1;P1;durP2;ratioP2;P2;SDS_P1;SDS_P2;PMS_P1;PMS_P2;Temp;Humidity;BMP_temperature;BMP_pressure;BME280_temperature;BME280_humidity;BME280_pressure;Samples;Min_cycle;Max_cycle;Signal;HPM_P1;HPM_P2
2021/08/23 00:00:44;;;;;;;4.70;1.83;;;;;;;9.78;100.00;93561.41;2082226;28;20026;-85
2021/08/23 00:01:45;;;;;;;3.83;2.00;;;;;;;9.78;100.00;93561.41;2082406;28;20510;-86
2021/08/23 00:02:46;;;;;;;2.35;1.92;;;;;;;9.82;100.00;93564.81;2105955;28;20031;-85
2021/08/23 00:03:47;;;;;;;2.13;1.80;;;;;;;9.75;100.00;93556.91;2106030;28;20028;-83
2021/08/23 00:04:48;;;;;;;2.72;2.10;;;;;;;9.75;100.00;93564.91;2115635;28;20030;-85
2021/08/23 00:05:49;;;;;;;4.07;2.20;;;;;;;9.72;100.00;93563.03;2115515;28;20069;-84
2021/08/23 00:06:50;;;;;;;3.85;1.75;;;;;;;9.61;100.00;93557.03;2107308;28;20028;-84
2021/08/23 00:07:51;;;;;;;5.30;1.80;;;;;;;9.62;100.00;93555.91;2104717;28;20373;-85
2021/08/23 00:08:52;;;;;;;6.13;1.95;;;;;;;9.60;100.00;93553.59;2107515;28;20046;-85
2021/08/23 00:09:53;;;;;;;2.08;1.73;;;;;;;9.54;100.00;93569.31;2106968;28;20028;-85
2021/08/23 00:10:54;;;;;;;3.63;1.98;;;;;;;9.47;100.00;93566.69;2123893;27;20023;-85
2021/08/23 00:11:55;;;;;;;1.88;1.77;;;;;;;9.42;100.00;93561.81;2107299;28;20488;-84
2021/08/23 00:12:56;;;;;;;3.88;1.58;;;;;;;9.44;100.00;93569.41;2115579;28;20019;-85
2021/08/23 00:13:56;;;;;;;2.97;2.10;;;;;;;9.47;100.00;93558.69;2123960;27;20045;-86
2021/08/23 00:14:57;;;;;;;3.35;2.08;;;;;;;9.47;100.00;93561.38;2106997;28;20016;-85
2021/08/23 00:15:58;;;;;;;3.13;1.88;;;;;;;9.58;100.00;93569.28;2115654;28;20496;-84
2021/08/23 00:16:59;;;;;;;5.82;1.90;;;;;;;9.54;100.00;93561.31;2115619;28;20499;-84
2021/08/23 00:18:00;;;;;;;4.57;2.03;;;;;;;9.53;100.00;93567.03;2106396;28;20020;-85
2021/08/23 00:19:01;;;;;;;2.60;1.80;;;;;;;9.36;100.00;93573.31;2098749;28;20021;-84
2021/08/23 00:20:04;;;;;;;4.82;2.03;;;;;;;9.43;100.00;93562.56;2090403;28;20024;-85
2021/08/23 00:21:11;;;;;;;2.72;1.80;;;;;;;9.40;100.00;93569.47;2093662;28;20032;-86
2021/08/23 00:22:32;;;;;;;1.75;1.63;;;;;;;9.36;100.00;93563.41;2100777;28;20512;-85
2021/08/23 00:23:36;;;;;;;2.92;2.00;;;;;;;9.35;100.00;93567.22;2109822;28;20054;-85
2021/08/23 00:24:37;;;;;;;3.03;2.03;;;;;;;9.37;100.00;93564.91;2106932;28;20023;-85
2021/08/23 00:25:41;;;;;;;3.20;2.05;;;;;;;9.42;100.00;93566.38;2107066;28;20028;-85
2021/08/23 00:26:42;;;;;;;7.78;2.40;;;;;;;9.44;100.00;93564.84;2115893;27;20491;-84
2021/08/23 00:27:44;;;;;;;3.92;2.30;;;;;;;9.41;100.00;93562.97;2115544;28;20043;-85
2021/08/23 00:28:45;;;;;;;4.95;2.22;;;;;;;9.37;100.00;93559.56;2108405;28;20055;-83
2021/08/23 00:29:46;;;;;;;3.40;1.90;;;;;;;9.34;100.00;93563.03;2110050;28;20020;-84
2021/08/23 00:30:47;;;;;;;3.78;2.33;;;;;;;9.35;100.00;93564.56;2110343;28;20027;-84
2021/08/23 00:31:48;;;;;;;5.72;2.33;;;;;;;9.37;100.00;93558.81;2108228;28;20036;-85
2021/08/23 00:32:49;;;;;;;2.33;2.13;;;;;;;9.33;100.00;93561.50;2102208;28;20020;-85
2021/08/23 00:33:50;;;;;;;4.43;2.15;;;;;;;9.32;100.00;93563.44;2123463;27;20034;-86
2021/08/23 00:34:52;;;;;;;3.83;2.13;;;;;;;9.41;100.00;93564.88;2124037;27;20041;-85
2021/08/23 00:35:53;;;;;;;2.92;2.05;;;;;;;9.30;100.00;93559.63;2115353;28;20064;-85
2021/08/23 00:36:54;;;;;;;3.03;2.60;;;;;;;9.29;100.00;93564.22;2106783;28;20125;-85
2021/08/23 00:37:56;;;;;;;3.00;2.03;;;;;;;9.24;100.00;93558.56;2098272;28;20025;-83
2021/08/23 00:38:57;;;;;;;2.63;2.22;;;;;;;9.25;100.00;93560.06;2107286;27;20400;-85
2021/08/23 00:39:58;;;;;;;3.20;2.17;;;;;;;9.22;100.00;93553.63;2106679;28;20019;-85
2021/08/23 00:40:59;;;;;;;3.72;1.90;;;;;;;9.14;100.00;93554.84;2098455;28;20020;-85
2021/08/23 00:42:00;;;;;;;5.93;2.17;;;;;;;9.11;100.00;93560.19;2106811;28;20020;-84
2021/08/23 00:43:02;;;;;;;3.88;1.80;;;;;;;9.10;100.00;93550.69;2106957;28;20040;-86
2021/08/23 00:44:04;;;;;;;3.17;2.00;;;;;;;9.06;100.00;93553.38;2098391;28;20046;-85
2021/08/23 00:45:06;;;;;;;3.92;2.10;;;;;;;9.03;100.00;93556.84;2107378;28;20031;-85
2021/08/23 00:46:07;;;;;;;7.85;1.83;;;;;;;9.00;100.00;93546.94;2115313;28;20111;-85
2021/08/23 00:47:09;;;;;;;2.67;1.85;;;;;;;8.98;100.00;93549.25;2105869;28;20028;-86
2021/08/23 00:48:10;;;;;;;2.45;1.67;;;;;;;8.95;100.00;93545.47;2106850;28;20020;-85
2021/08/23 00:49:11;;;;;;;3.40;2.08;;;;;;;9.00;100.00;93547.72;2106766;28;20421;-85
2021/08/23 00:50:12;;;;;;;2.35;2.05;;;;;;;9.06;100.00;93545.38;2100522;28;20056;-85
2021/08/23 00:51:13;;;;;;;2.60;1.88;;;;;;;9.09;100.00;93544.59;2123718;27;20174;-85
2021/08/23 00:52:14;;;;;;;1.73;1.60;;;;;;;9.03;100.00;93546.16;2106795;28;20078;-85
2021/08/23 00:53:16;;;;;;;1.88;1.73;;;;;;;8.98;100.00;93542.03;2104091;28;20440;-86
2021/08/23 00:54:17;;;;;;;3.88;2.08;;;;;;;9.11;100.00;93546.88;2106931;28;20028;-85
2021/08/23 00:55:18;;;;;;;4.00;2.00;;;;;;;8.97;100.00;93539.75;2106702;28;20028;-86
2021/08/23 00:56:20;;;;;;;2.33;1.65;;;;;;;8.93;100.00;93545.13;2098262;28;20028;-85
2021/08/23 00:57:21;;;;;;;1.70;1.60;;;;;;;9.00;100.00;93544.28;2106752;28;20027;-85
2021/08/23 00:58:22;;;;;;;2.70;1.70;;;;;;;8.97;100.00;93542.44;2098370;28;20021;-85
2021/08/23 00:59:29;;;;;;;2.15;1.83;;;;;;;8.98;100.00;93543.94;2106875;28;20027;-85
2021/08/23 01:00:32;;;;;;;2.20;1.90;;;;;;;8.86;100.00;93534.50;2114978;28;20467;-84
2021/08/23 01:01:59;;;;;;;2.17;1.98;;;;;;;8.87;100.00;93540.59;2106813;28;20026;-84
2021/08/23 01:03:04;;;;;;;3.70;2.03;;;;;;;8.85;100.00;93541.00;2101923;28;20024;-86
2021/08/23 01:04:19;;;;;;;3.10;1.77;;;;;;;8.87;100.00;93546.69;2099331;28;20056;-85
2021/08/23 01:05:25;;;;;;;4.90;1.73;;;;;;;8.81;100.00;93542.94;2100160;28;20028;-85
2021/08/23 01:06:29;;;;;;;4.72;2.03;;;;;;;8.83;100.00;93538.72;2099512;28;20017;-85
2021/08/23 01:07:38;;;;;;;3.63;1.77;;;;;;;8.85;100.00;93542.91;2107069;28;20020;-84
2021/08/23 01:08:40;;;;;;;3.65;2.00;;;;;;;8.69;100.00;93536.19;2090664;28;20082;-85
2021/08/23 01:09:48;;;;;;;6.80;1.88;;;;;;;8.69;100.00;93543.41;2090324;28;20028;-84
2021/08/23 01:10:51;;;;;;;2.28;1.63;;;;;;;8.71;100.00;93541.88;2107572;28;20038;-85
2021/08/23 01:11:55;;;;;;;2.97;1.77;;;;;;;8.69;100.00;93544.19;2111045;28;20032;-84
2021/08/23 01:12:58;;;;;;;2.53;1.75;;;;;;;8.67;100.00;93532.38;2111099;27;20491;-86
2021/08/23 01:13:59;;;;;;;1.77;1.40;;;;;;;8.70;100.00;93534.28;2115198;28;20495;-85
2021/08/23 01:15:00;;;;;;;2.95;1.95;;;;;;;8.69;100.00;93533.53;2115246;28;20951;-84
2021/08/23 01:16:02;;;;;;;6.80;2.15;;;;;;;8.66;100.00;93536.97;2106643;28;20024;-84
2021/08/23 01:17:04;;;;;;;4.35;2.10;;;;;;;8.71;100.00;93541.88;2106693;28;20026;-84
2021/08/23 01:18:05;;;;;;;4.22;2.10;;;;;;;8.75;100.00;93531.94;2115302;28;20074;-85
2021/08/23 01:19:08;;;;;;;3.13;1.70;;;;;;;8.70;100.00;93532.38;2114908;28;20051;-84
2021/08/23 01:20:09;;;;;;;2.58;1.90;;;;;;;8.64;100.00;93543.81;2106914;28;20081;-85
2021/08/23 01:21:17;;;;;;;4.05;2.10;;;;;;;8.71;100.00;93535.78;2098282;28;20122;-84
2021/08/23 01:22:19;;;;;;;3.92;1.90;;;;;;;8.74;100.00;93538.44;2100954;28;20024;-84
2021/08/23 01:23:20;;;;;;;2.55;1.90;;;;;;;8.73;100.00;93533.47;2106459;28;20042;-84
2021/08/23 01:24:22;;;;;;;2.78;1.75;;;;;;;8.74;100.00;93533.09;2106669;28;20468;-86
2021/08/23 01:25:28;;;;;;;3.03;1.98;;;;;;;8.76;100.00;93533.44;2110167;28;20384;-85
2021/08/23 01:26:34;;;;;;;4.57;1.75;;;;;;;8.78;100.00;93530.38;2107754;28;20615;-85
2021/08/23 01:27:38;;;;;;;3.40;2.00;;;;;;;8.73;100.00;93534.22;2107071;28;20615;-85
2021/08/23 01:28:45;;;;;;;3.70;1.85;;;;;;;8.75;100.00;93531.94;2107248;27;20416;-84
2021/08/23 01:30:07;;;;;;;2.53;1.67;;;;;;;8.67;100.00;93530.47;2115773;28;20055;-84
2021/08/23 01:31:18;;;;;;;3.20;2.00;;;;;;;8.69;100.00;93533.53;2109470;28;20023;-85
2021/08/23 01:32:23;;;;;;;2.90;2.00;;;;;;;8.64;100.00;93533.16;2109372;27;20028;-84
2021/08/23 01:33:24;;;;;;;2.22;1.75;;;;;;;8.62;100.00;93535.47;2115486;28;20023;-85
2021/08/23 01:34:25;;;;;;;5.32;1.80;;;;;;;8.58;100.00;93530.94;2114928;28;20024;-84
2021/08/23 01:35:27;;;;;;;3.53;2.08;;;;;;;8.56;100.00;93535.91;2106438;28;20055;-86
2021/08/23 01:36:31;;;;;;;2.20;1.80;;;;;;;8.59;100.00;93534.34;2106547;28;20697;-85
2021/08/23 01:37:35;;;;;;;2.38;1.80;;;;;;;8.63;100.00;93535.06;2107064;28;20106;-84
2021/08/23 01:38:36;;;;;;;2.00;1.70;;;;;;;8.62;100.00;93535.47;2115231;28;20026;-85
2021/08/23 01:39:39;;;;;;;1.90;1.58;;;;;;;8.60;100.00;93529.75;2114845;28;20025;-86
2021/08/23 01:40:40;;;;;;;2.88;1.50;;;;;;;8.63;100.00;93531.66;2115107;28;20488;-84
2021/08/23 01:41:41;;;;;;;2.00;1.80;;;;;;;8.68;100.00;93531.97;2106298;28;20044;-84
2021/08/23 01:42:43;;;;;;;4.22;1.92;;;;;;;8.66;100.00;93528.22;2114807;28;20024;-85
2021/08/23 01:43:44;;;;;;;2.53;1.85;;;;;;;8.61;100.00;93533.97;2114817;28;20072;-86
2021/08/23 01:44:45;;;;;;;2.70;1.70;;;;;;;8.55;100.00;93522.94;2109715;28;20068;-84
2021/08/23 01:45:46;;;;;;;1.70;1.60;;;;;;;8.53;100.00;93528.69;2106944;28;20023;-85
2021/08/23 01:46:47;;;;;;;2.08;1.60;;;;;;;8.53;100.00;93531.34;2120031;27;20023;-85
2021/08/23 01:47:48;;;;;;;2.67;1.58;;;;;;;8.54;100.00;93530.19;2132212;27;20450;-84
2021/08/23 01:48:49;;;;;;;3.03;1.50;;;;;;;8.51;100.00;93527.53;2132341;27;20050;-85
2021/08/23 01:49:50;;;;;;;2.40;1.45;;;;;;;8.52;100.00;93529.84;2114720;28;20028;-85
2021/08/23 01:50:51;;;;;;;1.98;1.63;;;;;;;8.53;100.00;93525.25;2114833;28;20019;-84
2021/08/23 01:51:53;;;;;;;1.75;1.65;;;;;;;8.44;100.00;93528.38;2114894;28;20015;-85
2021/08/23 01:52:54;;;;;;;1.27;1.17;;;;;;;8.45;100.00;93529.13;2106640;28;20023;-84
2021/08/23 01:53:55;;;;;;;3.15;1.35;;;;;;;8.47;100.00;93518.81;2106356;28;20016;-84
2021/08/23 01:54:56;;;;;;;3.92;1.40;;;;;;;8.42;100.00;93525.31;2098179;28;20401;-84
2021/08/23 01:55:56;;;;;;;3.15;1.42;;;;;;;8.39;100.00;93526.13;2097839;28;20027;-85
2021/08/23 01:56:57;;;;;;;3.13;1.35;;;;;;;8.46;100.00;93522.63;2106120;28;20035;-84
2021/08/23 01:57:58;;;;;;;2.78;1.38;;;;;;;8.50;100.00;93521.47;2097458;28;20031;-84
2021/08/23 01:59:00;;;;;;;2.85;1.25;;;;;;;8.48;100.00;93518.44;2106404;28;20024;-86
2021/08/23 02:00:02;;;;;;;1.45;1.30;;;;;;;8.43;100.00;93515.41;2098106;28;20023;-83
2021/08/23 02:01:03;;;;;;;2.67;1.40;;;;;;;8.35;100.00;93525.34;2106254;28;20073;-84
2021/08/23 02:02:04;;;;;;;1.35;1.20;;;;;;;8.38;100.00;93518.50;2114771;28;20019;-85
2021/08/23 02:03:05;;;;;;;2.83;1.40;;;;;;;8.42;100.00;93520.00;2106056;28;20020;-85
2021/08/23 02:04:06;;;;;;;2.20;1.30;;;;;;;8.39;100.00;93523.47;2106273;28;20077;-84
2021/08/23 02:06:59;;;;;;;;;;;;;;;8.36;100.00;93518.88;2140389;27;20177;-83
2021/08/23 02:08:01;;;;;;;1.75;1.20;;;;;;;8.36;100.00;93515.47;2139261;27;20356;-85
2021/08/23 02:09:03;;;;;;;1.52;1.42;;;;;;;8.33;100.00;93514.31;2122012;27;20019;-85
2021/08/23 02:10:05;;;;;;;2.38;1.52;;;;;;;8.26;100.00;93517.81;2122469;27;20023;-85
2021/08/23 02:11:06;;;;;;;3.53;1.20;;;;;;;8.20;100.00;93514.03;2130816;27;20773;-85
2021/08/23 02:12:07;;;;;;;1.98;1.63;;;;;;;8.14;100.00;93515.59;2130472;27;20046;-84
2021/08/23 02:13:08;;;;;;;1.40;1.30;;;;;;;8.12;100.00;93514.47;2113893;27;20019;-85
2021/08/23 02:14:10;;;;;;;1.98;1.45;;;;;;;8.15;100.00;93513.69;2121993;27;20375;-85
2021/08/23 02:15:11;;;;;;;3.33;1.63;;;;;;;8.15;100.00;93516.34;2130525;27;20113;-85
2021/08/23 02:16:12;;;;;;;2.13;1.45;;;;;;;8.03;100.00;93514.88;2130448;27;20376;-85
2021/08/23 02:17:12;;;;;;;3.92;1.35;;;;;;;8.11;100.00;93511.03;2130639;27;20106;-84
2021/08/23 02:18:13;;;;;;;5.47;1.40;;;;;;;8.13;100.00;93513.34;2113467;28;20027;-85
2021/08/23 02:19:14;;;;;;;2.30;1.60;;;;;;;8.12;100.00;93509.13;2115196;28;20028;-84
2021/08/23 02:20:15;;;;;;;2.05;1.75;;;;;;;8.14;100.00;93510.28;2122074;27;20027;-85
2021/08/23 02:21:19;;;;;;;3.42;1.90;;;;;;;8.16;100.00;93512.53;2113212;28;20016;-84
2021/08/23 02:22:20;;;;;;;3.65;1.70;;;;;;;8.17;100.00;93509.50;2122691;27;20514;-84
2021/08/23 02:23:21;;;;;;;4.32;1.80;;;;;;;8.16;100.00;93513.28;2121825;28;20030;-85
2021/08/23 02:24:23;;;;;;;1.85;1.75;;;;;;;8.05;100.00;93505.38;2121287;27;20110;-85
2021/08/23 02:25:24;;;;;;;1.60;1.50;;;;;;;8.10;100.00;93506.13;2130553;27;20031;-84
2021/08/23 02:26:25;;;;;;;7.53;1.75;;;;;;;8.13;100.00;93510.66;2121790;27;20019;-85
2021/08/23 02:27:26;;;;;;;2.95;1.80;;;;;;;8.14;100.00;93496.19;2121884;27;20027;-85
2021/08/23 02:28:27;;;;;;;2.33;2.03;;;;;;;8.07;100.00;93499.66;2121840;27;20408;-84
2021/08/23 02:29:27;;;;;;;4.63;2.10;;;;;;;8.13;100.00;93492.78;2122061;27;20023;-85
2021/08/23 02:30:28;;;;;;;2.13;1.88;;;;;;;8.21;100.00;93496.94;2121976;27;20019;-85
2021/08/23 02:31:29;;;;;;;2.88;1.83;;;;;;;8.17;100.00;93498.09;2130416;27;20030;-84
2021/08/23 02:32:30;;;;;;;4.18;1.77;;;;;;;8.23;100.00;93496.53;2139181;27;20014;-85
2021/08/23 02:33:31;;;;;;;2.38;2.03;;;;;;;8.16;100.00;93494.66;2121805;27;20027;-84
2021/08/23 02:34:32;;;;;;;3.47;1.90;;;;;;;8.09;100.00;93489.38;2122033;27;20064;-85
2021/08/23 02:35:33;;;;;;;3.13;1.98;;;;;;;8.20;100.00;93494.63;2130523;27;20055;-85
2021/08/23 02:36:34;;;;;;;7.00;2.00;;;;;;;8.16;100.00;93491.22;2130299;27;20011;-84
2021/08/23 02:37:35;;;;;;;1.92;1.73;;;;;;;8.21;100.00;93496.94;2121765;27;20020;-85
2021/08/23 02:38:36;;;;;;;1.98;1.75;;;;;;;8.16;100.00;93491.97;2113904;28;20027;-85
2021/08/23 02:39:36;;;;;;;1.67;1.58;;;;;;;8.19;100.00;93506.44;2113474;27;20031;-84
2021/08/23 02:40:37;;;;;;;3.60;1.83;;;;;;;8.21;100.00;93496.94;2113492;28;20028;-84
2021/08/23 02:41:38;;;;;;;1.75;1.58;;;;;;;8.28;100.00;93493.44;2121742;27;20031;-84
2021/08/23 02:42:41;;;;;;;2.35;1.38;;;;;;;8.23;100.00;93499.94;2118523;28;20415;-85
2021/08/23 02:43:42;;;;;;;2.47;1.20;;;;;;;8.30;100.00;93496.47;2121093;27;20418;-85
2021/08/23 02:44:43;;;;;;;3.03;1.70;;;;;;;8.33;100.00;93501.00;2123024;27;20162;-85
2021/08/23 02:45:43;;;;;;;5.85;1.70;;;;;;;8.29;100.00;93500.28;2121148;27;20069;-85
2021/08/23 02:46:44;;;;;;;2.17;1.40;;;;;;;8.23;100.00;93496.53;2126824;27;20066;-84
2021/08/23 02:47:45;;;;;;;1.40;1.30;;;;;;;8.17;100.00;93496.19;2130383;27;20027;-85
2021/08/23 02:48:46;;;;;;;1.40;1.30;;;;;;;8.22;100.00;93505.66;2113513;28;20070;-86
2021/08/23 02:49:47;;;;;;;4.05;1.20;;;;;;;8.19;100.00;93495.78;2113420;28;20027;-83
2021/08/23 02:50:48;;;;;;;2.22;1.35;;;;;;;8.19;100.00;93493.13;2121829;28;20031;-84
2021/08/23 02:51:49;;;;;;;1.23;1.10;;;;;;;8.15;100.00;93489.72;2121579;27;20032;-85
2021/08/23 02:52:50;;;;;;;1.38;1.10;;;;;;;8.13;100.00;93490.13;2130419;27;20031;-84
2021/08/23 02:53:51;;;;;;;3.00;1.30;;;;;;;8.21;100.00;93493.47;2121924;28;20027;-85
2021/08/23 02:54:52;;;;;;;1.50;1.20;;;;;;;8.23;100.00;93496.53;2113359;28;20020;-83
2021/08/23 02:55:53;;;;;;;1.75;1.50;;;;;;;8.21;100.00;93496.94;2116624;28;20024;-85
2021/08/23 02:56:53;;;;;;;1.70;1.60;;;;;;;8.23;100.00;93491.94;2117175;28;20016;-84
2021/08/23 02:57:54;;;;;;;3.67;1.80;;;;;;;8.24;100.00;93498.78;2133082;27;20019;-84
2021/08/23 02:58:55;;;;;;;2.58;1.77;;;;;;;8.21;100.00;93498.81;2135418;27;20037;-84
2021/08/23 02:59:56;;;;;;;2.13;1.70;;;;;;;8.18;100.00;93491.63;2138888;27;20022;-84
2021/08/23 03:00:57;;;;;;;1.75;1.65;;;;;;;8.19;100.00;93501.13;2139529;27;20027;-85
2021/08/23 03:01:58;;;;;;;5.47;1.50;;;;;;;8.22;100.00;93503.75;2132712;27;20027;-86
2021/08/23 03:02:59;;;;;;;3.72;2.10;;;;;;;8.21;100.00;93501.47;2125730;27;20023;-84
2021/08/23 03:04:00;;;;;;;3.45;1.50;;;;;;;8.17;100.00;93501.50;2113148;28;20074;-84
2021/08/23 03:05:01;;;;;;;2.97;1.85;;;;;;;8.16;100.00;93499.97;2113184;28;20015;-84
2021/08/23 03:06:02;;;;;;;4.65;1.70;;;;;;;8.21;100.00;93502.25;2104767;28;20056;-85
2021/08/23 03:07:03;;;;;;;7.47;2.00;;;;;;;8.20;100.00;93498.06;2104661;28;20418;-85
2021/08/23 03:08:04;;;;;;;5.53;1.90;;;;;;;8.21;100.00;93496.94;2104628;28;20556;-85
2021/08/23 03:09:05;;;;;;;3.35;2.03;;;;;;;8.25;100.00;93487.00;2113109;28;20062;-85
2021/08/23 03:10:07;;;;;;;2.47;1.75;;;;;;;8.26;100.00;93488.50;2113101;28;20460;-84
2021/08/23 03:11:10;;;;;;;5.82;2.13;;;;;;;8.28;100.00;93491.53;2104890;28;20035;-85
2021/08/23 03:12:11;;;;;;;3.35;2.08;;;;;;;8.28;100.00;93488.88;2113270;28;20074;-85
2021/08/23 03:13:12;;;;;;;6.07;1.90;;;;;;;8.22;100.00;93485.13;2121521;28;20101;-84
2021/08/23 03:14:13;;;;;;;4.38;2.10;;;;;;;8.27;100.00;93486.59;2104820;28;20036;-84
2021/08/23 03:15:14;;;;;;;3.20;2.35;;;;;;;8.34;100.00;93489.22;2104759;28;20034;-85
2021/08/23 03:16:15;;;;;;;2.95;2.67;;;;;;;8.39;100.00;93483.50;2113122;28;20034;-84
2021/08/23 03:17:16;;;;;;;5.70;2.78;;;;;;;8.40;100.00;93482.34;2104486;28;20366;-85
2021/08/23 03:18:17;;;;;;;2.58;2.38;;;;;;;8.41;100.00;93486.53;2091374;28;20021;-84
2021/08/23 03:19:18;;;;;;;3.97;2.33;;;;;;;8.55;100.00;93483.00;2099087;28;20035;-85
2021/08/23 03:20:18;;;;;;;5.00;2.28;;;;;;;8.57;100.00;93484.13;2098976;28;20021;-84
2021/08/23 03:21:19;;;;;;;4.07;2.45;;;;;;;8.65;100.00;93484.03;2098872;28;20103;-84
2021/08/23 03:22:20;;;;;;;3.83;2.78;;;;;;;8.64;100.00;93479.88;2107273;28;20077;-85
2021/08/23 03:23:21;;;;;;;3.05;2.33;;;;;;;8.65;100.00;93489.38;2107443;28;20419;-84
2021/08/23 03:24:22;;;;;;;6.30;2.95;;;;;;;8.64;100.00;93482.53;2107347;28;20027;-84
2021/08/23 03:25:23;;;;;;;3.78;2.15;;;;;;;8.67;100.00;93479.09;2099009;28;20436;-83
2021/08/23 03:26:24;;;;;;;5.50;2.53;;;;;;;8.65;100.00;93478.72;2107406;28;20023;-83
2021/08/23 03:27:25;;;;;;;7.18;2.50;;;;;;;8.71;100.00;93480.56;2115645;28;20114;-84
2021/08/23 03:28:26;;;;;;;8.25;2.70;;;;;;;8.66;100.00;93482.91;2098949;28;20031;-84
2021/08/23 03:29:27;;;;;;;3.72;2.53;;;;;;;8.64;100.00;93477.22;2090810;28;20453;-84
2021/08/23 03:30:28;;;;;;;3.50;2.53;;;;;;;8.69;100.00;93482.88;2090641;28;20074;-85
2021/08/23 03:31:29;;;;;;;5.07;2.90;;;;;;;8.63;100.00;93471.13;2107382;28;20054;-85
2021/08/23 03:32:30;;;;;;;3.63;2.60;;;;;;;8.61;100.00;93478.00;2115735;28;20149;-84
2021/08/23 03:33:32;;;;;;;4.35;2.60;;;;;;;8.61;100.00;93478.00;2098781;28;20090;-84
2021/08/23 03:34:34;;;;;;;5.13;2.67;;;;;;;8.63;100.00;93481.03;2107711;28;20095;-85
2021/08/23 03:35:34;;;;;;;6.05;2.53;;;;;;;8.62;100.00;93484.84;2107230;28;20028;-85
2021/08/23 03:36:35;;;;;;;4.30;2.70;;;;;;;8.59;100.00;93478.38;2090585;28;20112;-85
2021/08/23 03:37:36;;;;;;;4.07;2.50;;;;;;;8.63;100.00;93486.34;2107312;28;20073;-84
2021/08/23 03:38:38;;;;;;;3.25;2.70;;;;;;;8.61;100.00;93486.00;2115690;28;20472;-85
2021/08/23 03:39:39;;;;;;;3.13;2.53;;;;;;;8.52;100.00;93489.13;2113043;28;20058;-85
2021/08/23 03:40:40;;;;;;;7.25;2.58;;;;;;;8.56;100.00;93481.84;2107218;28;20097;-85
2021/08/23 03:41:41;;;;;;;3.67;2.53;;;;;;;8.58;100.00;93488.28;2098985;28;20032;-84
2021/08/23 03:42:42;;;;;;;9.50;3.00;;;;;;;8.56;100.00;93487.94;2100812;28;20389;-85
2021/08/23 03:43:43;;;;;;;6.28;2.70;;;;;;;8.62;100.00;93492.84;2107292;28;20016;-84
2021/08/23 03:44:44;;;;;;;4.32;2.40;;;;;;;8.62;100.00;93492.84;2107150;28;20044;-85
2021/08/23 03:45:45;;;;;;;5.90;2.58;;;;;;;8.54;100.00;93490.22;2107277;28;20023;-86
2021/08/23 03:46:46;;;;;;;2.63;2.40;;;;;;;8.63;100.00;93481.03;2100454;28;20063;-84
2021/08/23 03:47:47;;;;;;;8.73;2.70;;;;;;;8.62;100.00;93485.59;2098799;28;20112;-84
2021/08/23 03:48:48;;;;;;;3.05;2.70;;;;;;;8.63;100.00;93483.69;2107232;28;20028;-85
2021/08/23 03:49:49;;;;;;;5.03;2.60;;;;;;;8.57;100.00;93483.38;2115627;28;20019;-84
2021/08/23 03:50:49;;;;;;;5.28;2.40;;;;;;;8.68;100.00;93488.59;2115505;28;20055;-84
2021/08/23 03:51:50;;;;;;;2.97;2.72;;;;;;;8.68;100.00;93494.69;2098783;28;20385;-84
2021/08/23 03:52:51;;;;;;;3.95;2.67;;;;;;;8.72;100.00;93489.31;2107173;28;20027;-85
2021/08/23 03:53:52;;;;;;;5.25;2.85;;;;;;;8.73;100.00;93490.81;2107203;28;20020;-83
2021/08/23 03:54:53;;;;;;;3.83;3.28;;;;;;;8.76;100.00;93493.47;2098791;28;20029;-86
2021/08/23 03:55:54;;;;;;;6.53;2.65;;;;;;;8.77;100.00;93494.97;2090497;28;20024;-85
2021/08/23 03:56:55;;;;;;;3.33;2.60;;;;;;;8.77;100.00;93496.88;2090337;28;20053;-84
2021/08/23 03:57:56;;;;;;;5.72;2.53;;;;;;;8.76;100.00;93506.78;2107187;28;20382;-86
2021/08/23 03:58:57;;;;;;;4.88;2.88;;;;;;;8.83;100.00;93501.41;2116148;28;20024;-84
2021/08/23 03:59:58;;;;;;;6.40;3.22;;;;;;;8.85;100.00;93500.25;2115576;28;20058;-85
2021/08/23 04:00:59;;;;;;;3.88;2.63;;;;;;;8.88;100.00;93496.81;2115586;28;20088;-85
2021/08/23 04:02:00;;;;;;;3.55;2.90;;;;;;;8.87;100.00;93504.06;2115487;28;20019;-85
2021/08/23 04:03:01;;;;;;;3.15;2.78;;;;;;;8.94;100.00;93498.63;2115476;28;20027;-84
2021/08/23 04:04:02;;;;;;;5.32;2.70;;;;;;;8.96;100.00;93498.25;2107093;28;20407;-84
2021/08/23 04:05:04;;;;;;;2.85;2.63;;;;;;;8.97;100.00;93508.53;2107107;28;20028;-86
2021/08/23 04:06:09;;;;;;;3.05;2.63;;;;;;;8.96;100.00;93500.94;2098298;28;20481;-85
2021/08/23 04:07:10;;;;;;;4.07;2.78;;;;;;;8.95;100.00;93502.06;2099899;28;20029;-85
2021/08/23 04:08:11;;;;;;;5.30;2.78;;;;;;;8.92;100.00;93503.63;2116267;27;20468;-85
2021/08/23 04:09:13;;;;;;;3.83;2.67;;;;;;;8.92;100.00;93510.88;2115339;28;20061;-85
2021/08/23 04:10:14;;;;;;;3.10;2.80;;;;;;;8.93;100.00;93509.72;2107202;28;20712;-85
2021/08/23 04:11:16;;;;;;;4.57;2.60;;;;;;;8.98;100.00;93509.28;2098729;28;20126;-84
2021/08/23 04:12:17;;;;;;;6.85;3.15;;;;;;;8.90;100.00;93508.56;2090416;28;20021;-85
2021/08/23 04:13:17;;;;;;;9.75;2.80;;;;;;;8.98;100.00;93504.69;2098715;28;20140;-84
2021/08/23 04:14:18;;;;;;;3.55;2.67;;;;;;;8.95;100.00;93513.47;2115401;28;20483;-84
2021/08/23 04:15:19;;;;;;;4.07;2.90;;;;;;;8.97;100.00;93511.19;2106803;28;20023;-85
2021/08/23 04:16:20;;;;;;;6.57;2.78;;;;;;;9.01;100.00;93503.16;2107008;28;20020;-84
2021/08/23 04:17:21;;;;;;;5.53;2.63;;;;;;;8.92;100.00;93506.28;2106957;28;20468;-86
2021/08/23 04:18:22;;;;;;;4.30;3.17;;;;;;;8.95;100.00;93504.72;2115505;28;20031;-85
2021/08/23 04:19:23;;;;;;;3.20;2.90;;;;;;;9.02;100.00;93502.00;2106920;28;20028;-83
2021/08/23 04:20:24;;;;;;;6.63;2.47;;;;;;;9.02;100.00;93500.09;2106958;28;20412;-85
2021/08/23 04:21:25;;;;;;;4.78;2.90;;;;;;;9.03;100.00;93501.59;2115277;28;20028;-85
2021/08/23 04:22:26;;;;;;;6.47;2.80;;;;;;;9.03;100.00;93511.50;2114888;27;20114;-84
2021/08/23 04:23:27;;;;;;;4.93;3.08;;;;;;;9.02;100.00;93505.41;2115233;28;20020;-84
2021/08/23 04:24:28;;;;;;;5.32;2.95;;;;;;;9.00;100.00;93505.06;2106826;28;20457;-86
2021/08/23 04:25:29;;;;;;;3.08;2.53;;;;;;;9.05;100.00;93512.63;2107070;28;20477;-86
2021/08/23 04:26:30;;;;;;;2.90;2.40;;;;;;;9.05;100.00;93506.56;2106895;28;20020;-87
2021/08/23 04:27:31;;;;;;;4.68;3.08;;;;;;;9.05;100.00;93515.31;2115253;28;20105;-85
2021/08/23 04:28:32;;;;;;;4.05;2.65;;;;;;;9.06;100.00;93508.81;2115248;28;20058;-84
2021/08/23 04:29:33;;;;;;;5.15;3.08;;;;;;;9.11;100.00;93507.63;2114781;28;20027;-85
2021/08/23 04:30:34;;;;;;;5.57;3.20;;;;;;;9.10;100.00;93508.78;2114941;28;20102;-84
2021/08/23 04:31:35;;;;;;;3.67;3.25;;;;;;;9.08;100.00;93509.16;2106826;28;20484;-86
2021/08/23 04:32:36;;;;;;;4.68;2.80;;;;;;;9.07;100.00;93515.66;2098415;28;20017;-85
2021/08/23 04:33:36;;;;;;;4.18;2.95;;;;;;;9.09;100.00;93515.28;2115096;27;20464;-85
2021/08/23 04:34:37;;;;;;;4.20;3.25;;;;;;;9.10;100.00;93521.38;2123761;27;20023;-84
2021/08/23 04:35:38;;;;;;;3.63;2.53;;;;;;;9.09;100.00;93515.28;2123905;27;20030;-85
2021/08/23 04:36:39;;;;;;;5.40;3.13;;;;;;;9.13;100.00;93523.22;2106955;28;20553;-85
2021/08/23 04:37:40;;;;;;;4.72;3.05;;;;;;;9.11;100.00;93518.28;2106914;28;20024;-85
2021/08/23 04:38:41;;;;;;;3.90;2.70;;;;;;;9.16;100.00;93520.53;2106816;28;20028;-85
2021/08/23 04:39:44;;;;;;;6.55;3.60;;;;;;;9.12;100.00;93519.03;2106816;28;20069;-85
2021/08/23 04:40:45;;;;;;;4.32;3.22;;;;;;;9.05;100.00;93520.63;2115396;27;20024;-84
2021/08/23 04:41:46;;;;;;;4.10;3.10;;;;;;;9.07;100.00;93518.31;2115239;27;20496;-85
2021/08/23 04:42:47;;;;;;;3.35;3.00;;;;;;;9.04;100.00;93516.47;2115139;28;20414;-84
2021/08/23 04:43:48;;;;;;;4.45;2.92;;;;;;;9.02;100.00;93518.75;2115122;28;20094;-85
2021/08/23 04:44:49;;;;;;;5.53;3.10;;;;;;;9.03;100.00;93516.84;2106570;28;20028;-85
2021/08/23 04:45:50;;;;;;;7.95;3.13;;;;;;;9.00;100.00;93517.63;2112278;28;20032;-85
2021/08/23 04:46:51;;;;;;;4.28;3.20;;;;;;;8.98;100.00;93512.69;2106546;28;20024;-84
2021/08/23 04:47:51;;;;;;;6.03;2.75;;;;;;;9.04;100.00;93515.69;2113694;28;20016;-84
2021/08/23 04:48:52;;;;;;;5.20;3.15;;;;;;;9.08;100.00;93522.50;2115099;28;20728;-85
2021/08/23 04:49:53;;;;;;;4.38;3.22;;;;;;;9.14;100.00;93514.84;2115327;28;20015;-84
2021/08/23 04:50:54;;;;;;;7.05;3.40;;;;;;;9.16;100.00;93515.19;2115312;28;20016;-86
2021/08/23 04:51:55;;;;;;;7.22;3.08;;;;;;;9.18;100.00;93520.16;2115393;28;20472;-85
2021/08/23 04:52:56;;;;;;;6.13;2.85;;;;;;;9.24;100.00;93519.31;2123883;27;20053;-85